createdAt,value
2022-12-15T00:00:19.658Z,-7.38
2022-12-15T00:03:05.740Z,-7.22
2022-12-15T00:05:51.896Z,-7.14
2022-12-15T00:08:37.844Z,-7.15
2022-12-15T00:11:24.420Z,-7.31
2022-12-15T00:14:10.586Z,-7.27
2022-12-15T00:16:56.657Z,-7.27
2022-12-15T00:19:42.622Z,-7.13
2022-12-15T00:22:28.427Z,-7.13
2022-12-15T00:25:14.651Z,-7.55
2022-12-15T00:28:00.723Z,-7.27
2022-12-15T00:30:49.979Z,-7.16
2022-12-15T00:33:36.542Z,-7.43
2022-12-15T00:36:22.635Z,-7.23
2022-12-15T00:38:49.804Z,-7.09
2022-12-15T00:41:18.872Z,-7.29
2022-12-15T00:43:46.743Z,-7.14
2022-12-15T00:46:32.827Z,-7.62
2022-12-15T00:49:00.860Z,-7.73
2022-12-15T00:51:47.129Z,-7.83
2022-12-15T00:54:33.078Z,-7.24
2022-12-15T00:57:19.031Z,-7.13
2022-12-15T01:00:05.049Z,-7.07
2022-12-15T01:02:51.827Z,-6.95
2022-12-15T01:05:37.944Z,-7.14
2022-12-15T01:08:24.021Z,-7.17
2022-12-15T01:11:09.819Z,-7.32
2022-12-15T01:13:55.808Z,-7.68
2022-12-15T01:16:42.094Z,-7.65
2022-12-15T01:19:28.208Z,-7.35
2022-12-15T01:21:55.440Z,-7.38
2022-12-15T01:24:22.799Z,-7.23
2022-12-15T01:26:50.280Z,-7.28
2022-12-15T01:29:17.598Z,-7.43
2022-12-15T01:31:44.837Z,-7.50
2022-12-15T01:34:20.078Z,-7.66
2022-12-15T01:36:47.364Z,-7.70
2022-12-15T01:39:14.537Z,-7.64
2022-12-15T01:41:42.917Z,-7.62
2022-12-15T01:44:20.581Z,-7.59
2022-12-15T01:46:53.292Z,-7.59
2022-12-15T01:49:32.174Z,-7.30
2022-12-15T01:52:02.124Z,-7.48
2022-12-15T01:54:34.964Z,-7.39
2022-12-15T01:57:13.811Z,-7.33
2022-12-15T01:59:51.597Z,-7.83
2022-12-15T02:02:23.979Z,-7.92
2022-12-15T02:04:54.081Z,-7.87
2022-12-15T02:07:21.240Z,-7.76
2022-12-15T02:09:51.974Z,-7.78
2022-12-15T02:12:37.493Z,-7.36
2022-12-15T02:15:17.315Z,-7.15
2022-12-15T02:18:03.741Z,-7.27
2022-12-15T02:20:58.708Z,-7.12
2022-12-15T02:24:31.258Z,-7.07
2022-12-15T02:27:47.743Z,-7.00
2022-12-15T02:30:37.619Z,-7.02
2022-12-15T02:33:23.920Z,-6.93
2022-12-15T02:36:23.907Z,-7.01
2022-12-15T02:38:51.359Z,-6.90
2022-12-15T02:41:38.627Z,-6.95
2022-12-15T02:44:13.763Z,-6.85
2022-12-15T02:47:24.526Z,-7.10
2022-12-15T02:50:33.750Z,-7.29
2022-12-15T02:53:31.562Z,-6.96
2022-12-15T02:56:41.395Z,-6.85
2022-12-15T02:59:19.381Z,-6.86
2022-12-15T03:01:58.432Z,-6.91
2022-12-15T03:04:27.028Z,-6.91
2022-12-15T03:07:01.180Z,-7.11
2022-12-15T03:09:28.843Z,-7.08
2022-12-15T03:11:56.280Z,-6.84
2022-12-15T03:14:25.401Z,-6.82
2022-12-15T03:16:53.789Z,-6.98
2022-12-15T03:19:21.374Z,-7.13
2022-12-15T03:21:48.597Z,-7.87
2022-12-15T03:24:15.748Z,-7.37
2022-12-15T03:26:43.770Z,-7.01
2022-12-15T03:29:10.995Z,-7.21
2022-12-15T03:31:38.178Z,-7.11
2022-12-15T03:34:05.499Z,-7.06
2022-12-15T03:36:32.713Z,-7.35
2022-12-15T03:38:59.864Z,-6.97
2022-12-15T03:41:27.030Z,-7.00
2022-12-15T03:43:54.380Z,-7.13
2022-12-15T03:46:21.672Z,-7.06
2022-12-15T03:48:48.885Z,-7.25
2022-12-15T03:51:16.212Z,-7.36
2022-12-15T03:53:43.373Z,-7.15
2022-12-15T03:56:10.572Z,-7.14
2022-12-15T03:58:37.793Z,-7.01
2022-12-15T04:01:29.432Z,-7.11
2022-12-15T04:04:00.879Z,-7.05
2022-12-15T04:06:30.930Z,-6.84
2022-12-15T04:08:58.199Z,-6.72
2022-12-15T04:11:25.455Z,-6.58
2022-12-15T04:13:52.624Z,-6.52
2022-12-15T04:16:20.485Z,-6.55
2022-12-15T04:19:08.330Z,-6.50
2022-12-15T04:21:35.522Z,-6.51
2022-12-15T04:24:21.633Z,-6.39
2022-12-15T04:27:07.653Z,-6.43
2022-12-15T04:29:53.276Z,-6.41
2022-12-15T04:32:38.898Z,-6.39
2022-12-15T04:35:25.280Z,-6.36
2022-12-15T04:38:11.660Z,-6.32
2022-12-15T04:40:57.363Z,-6.42
2022-12-15T04:43:43.711Z,-6.37
2022-12-15T04:46:29.807Z,-6.44
2022-12-15T04:49:15.760Z,-6.34
2022-12-15T04:52:01.598Z,-6.23
2022-12-15T04:54:47.675Z,-6.18
2022-12-15T04:57:33.730Z,-6.19
2022-12-15T05:00:19.844Z,-6.12
2022-12-15T05:03:05.815Z,-6.22
2022-12-15T05:05:51.538Z,-6.17
2022-12-15T05:08:37.699Z,-6.14
2022-12-15T05:11:23.489Z,-6.12
2022-12-15T05:14:09.638Z,-6.22
2022-12-15T05:16:55.763Z,-6.20
2022-12-15T05:19:41.710Z,-6.22
2022-12-15T05:22:27.549Z,-6.33
2022-12-15T05:25:13.357Z,-6.28
2022-12-15T05:27:58.970Z,-6.12
2022-12-15T05:30:44.769Z,-6.08
2022-12-15T05:33:11.975Z,-6.11
2022-12-15T05:35:39.149Z,-6.03
2022-12-15T05:38:06.333Z,-6.04
2022-12-15T05:40:33.516Z,-6.09
2022-12-15T05:43:01.168Z,-6.43
2022-12-15T05:45:28.416Z,-6.82
2022-12-15T05:47:56.382Z,-6.75
2022-12-15T05:50:24.094Z,-6.57
2022-12-15T05:52:51.756Z,-6.57
2022-12-15T05:55:19.867Z,-6.32
2022-12-15T05:57:54.262Z,-6.22
2022-12-15T06:00:22.256Z,-6.26
2022-12-15T06:02:49.869Z,-6.21
2022-12-15T06:05:18.089Z,-6.17
2022-12-15T06:07:45.278Z,-6.20
2022-12-15T06:10:12.735Z,-6.14
2022-12-15T06:12:39.864Z,-6.21
2022-12-15T06:15:07.689Z,-6.25
2022-12-15T06:17:34.923Z,-6.31
2022-12-15T06:20:02.722Z,-6.30
2022-12-15T06:22:29.913Z,-6.29
2022-12-15T06:24:57.269Z,-6.14
2022-12-15T06:27:24.590Z,-6.22
2022-12-15T06:29:51.743Z,-6.08
2022-12-15T06:32:19.171Z,-6.22
2022-12-15T06:34:47.412Z,-6.17
2022-12-15T06:37:14.569Z,-6.21
2022-12-15T06:39:41.744Z,-6.32
2022-12-15T06:42:08.898Z,-6.20
2022-12-15T06:44:36.114Z,-6.38
2022-12-15T06:47:03.839Z,-6.38
2022-12-15T06:49:31.907Z,-6.25
2022-12-15T06:51:59.081Z,-6.30
2022-12-15T06:54:26.341Z,-6.21
2022-12-15T06:56:53.505Z,-6.36
2022-12-15T06:59:20.721Z,-6.19
2022-12-15T07:01:48.180Z,-6.21
2022-12-15T07:04:15.810Z,-6.09
2022-12-15T07:06:43.245Z,-6.07
2022-12-15T07:09:16.618Z,-6.05
2022-12-15T07:11:45.120Z,-6.06
2022-12-15T07:14:12.280Z,-5.99
2022-12-15T07:16:39.597Z,-6.03
2022-12-15T07:19:11.560Z,-6.16
2022-12-15T07:21:38.781Z,-6.18
2022-12-15T07:24:06.867Z,-6.55
2022-12-15T07:26:34.401Z,-6.60
2022-12-15T07:29:01.532Z,-5.89
2022-12-15T07:31:30.793Z,-5.90
2022-12-15T07:33:59.219Z,-6.07
2022-12-15T07:36:27.674Z,-6.33
2022-12-15T07:39:02.705Z,-6.27
2022-12-15T07:41:30.317Z,-5.98
2022-12-15T07:43:58.646Z,-5.87
2022-12-15T07:46:26.411Z,-5.79
2022-12-15T07:48:53.681Z,-5.81
2022-12-15T07:51:22.680Z,-5.77
2022-12-15T07:53:51.204Z,-5.69
2022-12-15T07:56:20.290Z,-5.71
2022-12-15T07:58:47.748Z,-5.58
2022-12-15T08:01:16.124Z,-5.58
2022-12-15T08:03:43.718Z,-5.45
2022-12-15T08:06:14.336Z,-5.46
2022-12-15T08:08:45.204Z,-5.49
2022-12-15T08:11:21.521Z,-5.47
2022-12-15T08:14:02.542Z,-5.41
2022-12-15T08:16:31.416Z,-5.41
2022-12-15T08:18:58.678Z,-5.31
2022-12-15T08:21:25.882Z,-5.22
2022-12-15T08:23:53.175Z,-5.20
2022-12-15T08:26:26.619Z,-5.12
2022-12-15T08:29:11.765Z,-5.03
2022-12-15T08:31:44.682Z,-4.84
2022-12-15T08:34:11.960Z,-4.62
2022-12-15T08:36:39.153Z,-4.58
2022-12-15T08:39:06.319Z,-4.41
2022-12-15T08:41:33.907Z,-4.08
2022-12-15T08:44:02.148Z,-2.61
2022-12-15T08:46:33.997Z,-2.83
2022-12-15T08:49:02.829Z,-1.98
2022-12-15T08:51:32.525Z,-0.83
2022-12-15T08:54:01.015Z,-0.89
2022-12-15T08:56:29.631Z,-0.29
2022-12-15T08:59:00.524Z,0.62
2022-12-15T09:01:31.462Z,0.91
2022-12-15T09:03:59.392Z,1.43
2022-12-15T09:06:32.829Z,1.37
2022-12-15T09:09:07.180Z,0.87
2022-12-15T09:11:34.981Z,0.70
2022-12-15T09:14:02.488Z,1.24
2022-12-15T09:16:30.221Z,1.38
2022-12-15T09:18:59.843Z,2.30
2022-12-15T09:21:30.316Z,1.56
2022-12-15T09:24:02.122Z,1.99
2022-12-15T09:26:33.292Z,2.22
2022-12-15T09:29:02.021Z,1.93
2022-12-15T09:31:33.223Z,2.18
2022-12-15T09:34:01.785Z,2.31
2022-12-15T09:36:30.783Z,2.72
2022-12-15T09:38:59.894Z,2.80
2022-12-15T09:41:32.019Z,2.39
2022-12-15T09:44:12.788Z,2.29
2022-12-15T09:47:06.057Z,2.15
2022-12-15T09:49:54.527Z,1.35
2022-12-15T09:52:50.177Z,1.18
2022-12-15T09:55:25.220Z,0.96
2022-12-15T09:58:00.090Z,0.70
2022-12-15T10:00:45.652Z,0.64
2022-12-15T10:03:44.852Z,0.56
2022-12-15T10:06:27.036Z,0.44
2022-12-15T10:09:09.359Z,0.33
2022-12-15T10:12:04.348Z,0.40
2022-12-15T10:14:52.370Z,0.46
2022-12-15T10:17:33.608Z,0.22
2022-12-15T10:20:13.579Z,0.24
2022-12-15T10:22:40.815Z,0.25
2022-12-15T10:25:18.765Z,0.26
2022-12-15T10:28:23.359Z,0.23
2022-12-15T10:31:07.709Z,0.07
2022-12-15T10:33:39.722Z,0.19
2022-12-15T10:36:16.103Z,0.11
2022-12-15T10:38:50.231Z,-0.33
2022-12-15T10:41:21.909Z,-0.19
2022-12-15T10:43:53.088Z,0.01
2022-12-15T10:46:29.419Z,0.05
2022-12-15T10:49:07.936Z,-0.02
2022-12-15T10:51:43.406Z,-0.28
2022-12-15T10:54:14.538Z,-0.25
2022-12-15T10:56:56.292Z,-0.28
2022-12-15T10:59:38.364Z,-0.28
2022-12-15T11:02:23.831Z,-0.10
2022-12-15T11:05:10.044Z,-0.13
2022-12-15T11:07:51.095Z,-0.22
2022-12-15T11:10:26.991Z,-0.31
2022-12-15T11:13:08.434Z,-0.26
2022-12-15T11:15:43.880Z,-0.19
2022-12-15T11:18:40.801Z,-0.21
2022-12-15T11:21:23.453Z,-0.27
2022-12-15T11:24:19.043Z,-0.23
2022-12-15T11:26:53.302Z,-0.11
2022-12-15T11:29:34.709Z,-0.17
2022-12-15T11:32:07.078Z,-0.12
2022-12-15T11:34:47.132Z,0.00
2022-12-15T11:37:42.034Z,-0.09
2022-12-15T11:40:39.295Z,-0.09
2022-12-15T11:43:50.490Z,-0.20
2022-12-15T11:46:27.078Z,0.07
2022-12-15T11:49:42.969Z,-0.07
2022-12-15T11:52:45.483Z,0.09
2022-12-15T11:55:33.193Z,0.35
2022-12-15T11:58:46.006Z,0.56
2022-12-15T12:01:51.685Z,0.67
2022-12-15T12:04:30.041Z,0.76
2022-12-15T12:07:19.898Z,0.84
2022-12-15T12:10:40.653Z,1.00
2022-12-15T12:13:44.830Z,1.22
2022-12-15T12:16:28.841Z,1.33
2022-12-15T12:19:05.926Z,1.46
2022-12-15T12:24:58.256Z,1.56
2022-12-15T12:27:34.554Z,1.78
2022-12-15T12:30:13.020Z,1.80
2022-12-15T12:32:55.187Z,2.01
2022-12-15T12:35:56.505Z,1.99
2022-12-15T12:38:52.100Z,2.17
2022-12-15T12:41:51.479Z,2.48
2022-12-15T12:44:27.384Z,2.51
2022-12-15T12:46:58.961Z,2.32
2022-12-15T12:49:41.478Z,2.42
2022-12-15T12:52:22.553Z,2.30
2022-12-15T12:55:41.286Z,2.53
2022-12-15T12:58:37.210Z,2.29
2022-12-15T13:01:32.165Z,2.31
2022-12-15T13:04:10.660Z,2.63
2022-12-15T13:06:40.782Z,2.74
2022-12-15T13:09:16.663Z,2.57
2022-12-15T13:11:52.667Z,2.36
2022-12-15T13:14:38.559Z,2.60
2022-12-15T13:17:28.548Z,2.35
2022-12-15T13:19:58.480Z,2.12
2022-12-15T13:22:40.346Z,2.60
2022-12-15T13:25:40.880Z,2.51
2022-12-15T13:28:27.088Z,2.41
2022-12-15T13:31:20.872Z,2.13
2022-12-15T13:33:50.935Z,2.15
2022-12-15T13:36:36.685Z,2.07
2022-12-15T13:39:27.791Z,2.02
2022-12-15T13:44:51.723Z,1.82
2022-12-15T13:47:18.831Z,1.74
2022-12-15T13:50:09.105Z,1.76
2022-12-15T13:53:17.977Z,1.61
2022-12-15T13:55:46.191Z,1.60
2022-12-15T13:58:21.632Z,1.60
2022-12-15T14:00:58.199Z,1.45
2022-12-15T14:03:26.907Z,1.40
2022-12-15T14:06:00.118Z,1.39
2022-12-15T14:08:31.011Z,1.29
2022-12-15T14:11:16.587Z,1.13
2022-12-15T14:13:52.305Z,1.00
2022-12-15T14:16:23.431Z,1.04
2022-12-15T14:19:23.056Z,0.96
2022-12-15T14:21:52.508Z,0.94
2022-12-15T14:27:28.180Z,0.83
2022-12-15T14:30:34.789Z,0.67
2022-12-15T14:33:11.561Z,0.71
2022-12-15T14:35:50.034Z,0.59
2022-12-15T14:38:26.150Z,0.57
2022-12-15T14:40:57.695Z,0.43
2022-12-15T14:43:34.282Z,0.47
2022-12-15T14:46:22.372Z,0.41
2022-12-15T14:49:04.983Z,0.35
2022-12-15T14:51:46.846Z,0.29
2022-12-15T14:54:38.362Z,0.17
2022-12-15T14:57:21.900Z,0.18
2022-12-15T14:59:51.283Z,0.11
2022-12-15T15:02:27.419Z,0.15
2022-12-15T15:03:10.905Z,1.48
2022-12-15T15:03:14.310Z,0.85
2022-12-15T15:05:07.637Z,0.09
2022-12-15T15:07:45.899Z,0.07
2022-12-15T15:10:29.183Z,-0.19
2022-12-15T15:12:56.472Z,-0.41
2022-12-15T15:15:26.828Z,-0.45
2022-12-15T15:17:59.588Z,-0.46
2022-12-15T15:20:31.661Z,-0.37
2022-12-15T15:23:19.207Z,-0.33
2022-12-15T15:25:58.187Z,-0.34
2022-12-15T15:28:35.665Z,-0.51
2022-12-15T15:31:25.637Z,-0.74
2022-12-15T15:33:56.772Z,-0.84
2022-12-15T15:36:34.494Z,-0.59
2022-12-15T15:39:10.194Z,-0.57
2022-12-15T15:41:37.666Z,-0.75
2022-12-15T15:44:14.690Z,-0.80
2022-12-15T15:46:52.367Z,-0.61
2022-12-15T15:49:23.326Z,-0.63
2022-12-15T15:51:50.653Z,-0.72
2022-12-15T15:54:23.469Z,-0.88
2022-12-15T15:56:50.731Z,-1.13
2022-12-15T15:59:21.215Z,-0.98
2022-12-15T16:01:59.670Z,-1.28
2022-12-15T16:04:29.932Z,-1.18
2022-12-15T16:06:57.079Z,-1.25
2022-12-15T16:09:25.184Z,-1.21
2022-12-15T16:11:52.581Z,-1.38
2022-12-15T16:14:19.747Z,-1.46
2022-12-15T16:16:46.931Z,-1.80
2022-12-15T16:19:14.230Z,-1.68
2022-12-15T16:21:42.860Z,-1.64
2022-12-15T16:24:17.858Z,-1.56
2022-12-15T16:26:49.710Z,-1.89
2022-12-15T16:29:20.651Z,-1.54
2022-12-15T16:31:48.037Z,-1.48
2022-12-15T16:34:20.379Z,-1.29
2022-12-15T16:36:47.960Z,-1.32
2022-12-15T16:39:26.669Z,-1.28
2022-12-15T16:41:56.390Z,-1.26
2022-12-15T16:44:26.066Z,-1.33
2022-12-15T16:46:53.451Z,-1.28
2022-12-15T16:49:21.123Z,-1.32
2022-12-15T16:51:53.158Z,-1.43
2022-12-15T16:54:25.324Z,-1.64
2022-12-15T16:56:54.823Z,-1.44
2022-12-15T16:59:34.944Z,-1.55
2022-12-15T17:02:23.167Z,-1.44
2022-12-15T17:04:50.681Z,-1.30
2022-12-15T17:07:20.753Z,-1.29
2022-12-15T17:09:50.810Z,-1.31
2022-12-15T17:12:18.728Z,-1.34
2022-12-15T17:14:46.407Z,-1.31
2022-12-15T17:17:19.671Z,-1.31
2022-12-15T17:22:34.421Z,-1.35
2022-12-15T17:25:01.743Z,-1.40
2022-12-15T17:27:30.119Z,-1.50
2022-12-15T17:29:59.849Z,-1.48
2022-12-15T17:32:27.073Z,-1.54
2022-12-15T17:34:54.324Z,-1.55
2022-12-15T17:37:21.617Z,-1.50
2022-12-15T17:39:51.447Z,-1.64
2022-12-15T17:42:22.202Z,-1.50
2022-12-15T17:44:51.770Z,-1.54
2022-12-15T17:47:19.455Z,-1.55
2022-12-15T17:49:47.428Z,-1.63
2022-12-15T17:52:34.238Z,-1.57
2022-12-15T17:55:03.276Z,-1.52
2022-12-15T17:57:33.634Z,-1.54
2022-12-15T18:00:01.849Z,-1.48
2022-12-15T18:02:29.350Z,-1.52
2022-12-15T18:04:56.869Z,-1.60
2022-12-15T18:07:24.234Z,-1.47
2022-12-15T18:09:53.054Z,-1.55
2022-12-15T18:12:26.789Z,-1.52
2022-12-15T18:14:55.644Z,-1.64
2022-12-15T18:17:23.691Z,-1.63
2022-12-15T18:19:51.012Z,-1.57
2022-12-15T18:22:23.151Z,-1.57
2022-12-15T18:24:53.944Z,-1.59
2022-12-15T18:27:26.037Z,-1.64
2022-12-15T18:29:53.729Z,-1.76
2022-12-15T18:32:27.143Z,-1.67
2022-12-15T18:34:55.256Z,-1.73
2022-12-15T18:37:28.092Z,-1.86
2022-12-15T18:39:59.505Z,-2.21
2022-12-15T18:42:31.357Z,-2.38
2022-12-15T18:45:00.271Z,-2.16
2022-12-15T18:47:27.806Z,-2.28
2022-12-15T18:49:55.102Z,-2.49
2022-12-15T18:52:27.539Z,-2.40
2022-12-15T18:54:57.285Z,-2.44
2022-12-15T18:57:36.439Z,-2.93
2022-12-15T19:00:09.564Z,-2.63
2022-12-15T19:02:36.841Z,-2.52
2022-12-15T19:05:04.607Z,-2.33
2022-12-15T19:07:34.051Z,-2.37
2022-12-15T19:10:01.320Z,-2.64
2022-12-15T19:12:28.532Z,-2.63
2022-12-15T19:14:55.683Z,-2.70
2022-12-15T19:17:42.652Z,-2.59
2022-12-15T19:20:38.518Z,-2.34
2022-12-15T19:23:07.046Z,-2.62
2022-12-15T19:25:35.292Z,-2.62
2022-12-15T19:28:02.630Z,-2.82
2022-12-15T19:30:41.588Z,-2.83
2022-12-15T19:33:12.379Z,-3.00
2022-12-15T19:35:43.245Z,-3.25
2022-12-15T19:38:36.760Z,-3.10
2022-12-15T19:41:04.009Z,-3.07
2022-12-15T19:43:31.634Z,-3.08
2022-12-15T19:45:59.090Z,-3.20
2022-12-15T19:48:26.339Z,-3.56
2022-12-15T19:50:54.859Z,-2.97
2022-12-15T19:53:27.028Z,-3.35
2022-12-15T19:55:58.369Z,-3.26
2022-12-15T19:58:35.570Z,-3.24
2022-12-15T20:01:15.488Z,-3.02
2022-12-15T20:03:48.575Z,-3.21
2022-12-15T20:06:22.210Z,-3.62
2022-12-15T20:08:52.943Z,-3.68
2022-12-15T20:11:28.483Z,-3.93
2022-12-15T20:13:56.452Z,-3.78
2022-12-15T20:16:24.807Z,-3.66
2022-12-15T20:18:55.097Z,-3.66
2022-12-15T20:21:28.569Z,-4.19
2022-12-15T20:24:14.133Z,-4.08
2022-12-15T20:26:43.148Z,-3.85
2022-12-15T20:29:23.421Z,-3.87
2022-12-15T20:31:51.585Z,-3.71
2022-12-15T20:34:19.039Z,-3.96
2022-12-15T20:36:47.394Z,-4.31
2022-12-15T20:39:29.737Z,-4.18
2022-12-15T20:41:57.984Z,-4.02
2022-12-15T20:44:25.370Z,-3.95
2022-12-15T20:46:53.589Z,-4.34
2022-12-15T20:49:22.756Z,-3.95
2022-12-15T20:51:50.812Z,-4.04
2022-12-15T20:54:21.858Z,-4.10
2022-12-15T20:56:49.872Z,-4.35
2022-12-15T20:59:17.951Z,-4.39
2022-12-15T21:01:46.319Z,-4.76
2022-12-15T21:04:26.891Z,-4.18
2022-12-15T21:06:56.389Z,-4.85
2022-12-15T21:09:24.393Z,-5.26
2022-12-15T21:11:55.165Z,-4.64
2022-12-15T21:14:23.932Z,-5.01
2022-12-15T21:16:51.468Z,-5.14
2022-12-15T21:19:20.936Z,-5.21
2022-12-15T21:21:55.425Z,-4.82
2022-12-15T21:24:28.549Z,-5.15
2022-12-15T21:26:56.092Z,-4.87
2022-12-15T21:29:27.431Z,-4.89
2022-12-15T21:31:54.668Z,-4.92
2022-12-15T21:34:22.063Z,-4.94
2022-12-15T21:36:57.158Z,-4.62
2022-12-15T21:39:34.016Z,-4.90
2022-12-15T21:42:11.268Z,-4.64
2022-12-15T21:44:38.499Z,-4.59
2022-12-15T21:47:52.054Z,-5.40
2022-12-15T21:50:19.445Z,-5.55
2022-12-15T21:52:47.758Z,-5.56
2022-12-15T21:55:22.839Z,-5.99
2022-12-15T21:57:50.016Z,-5.89
2022-12-15T22:00:21.119Z,-5.89
2022-12-15T22:02:51.112Z,-5.85
2022-12-15T22:05:30.784Z,-5.73
2022-12-15T22:08:12.518Z,-6.12
2022-12-15T22:10:39.743Z,-5.74
2022-12-15T22:13:15.527Z,-5.82
2022-12-15T22:15:43.503Z,-5.89
2022-12-15T22:18:19.263Z,-5.90
2022-12-15T22:20:49.726Z,-6.06
2022-12-15T22:23:19.369Z,-5.84
2022-12-15T22:25:54.111Z,-6.18
2022-12-15T22:28:26.996Z,-6.14
2022-12-15T22:30:56.906Z,-6.15
2022-12-15T22:33:26.161Z,-6.52
2022-12-15T22:35:55.999Z,-6.23
2022-12-15T22:38:23.937Z,-6.41
2022-12-15T22:40:56.471Z,-5.86
2022-12-15T22:43:36.472Z,-5.65
2022-12-15T22:46:09.090Z,-6.33
2022-12-15T22:48:40.463Z,-5.96
2022-12-15T22:51:12.513Z,-5.89
2022-12-15T22:53:39.821Z,-5.88
2022-12-15T22:56:26.555Z,-5.84
2022-12-15T22:59:05.850Z,-5.41
2022-12-15T23:01:33.265Z,-5.49
2022-12-15T23:04:00.562Z,-6.07
2022-12-15T23:06:28.305Z,-6.32
2022-12-15T23:08:56.299Z,-6.14
2022-12-15T23:11:39.475Z,-6.44
2022-12-15T23:14:43.776Z,-6.39
2022-12-15T23:17:12.829Z,-6.59
2022-12-15T23:19:44.792Z,-6.10
2022-12-15T23:22:12.082Z,-6.44
2022-12-15T23:24:39.328Z,-6.66
2022-12-15T23:27:11.263Z,-6.42
2022-12-15T23:29:38.528Z,-5.77
2022-12-15T23:32:06.108Z,-6.07
2022-12-15T23:34:33.251Z,-6.49
2022-12-15T23:37:00.836Z,-6.49
2022-12-15T23:39:28.249Z,-6.78
2022-12-15T23:41:55.510Z,-6.54
2022-12-15T23:44:22.914Z,-6.49
2022-12-15T23:46:50.224Z,-6.61
2022-12-15T23:49:17.441Z,-5.81
2022-12-15T23:51:44.578Z,-5.69
2022-12-15T23:54:11.789Z,-6.02
2022-12-15T23:56:40.321Z,-6.20
2022-12-15T23:59:07.664Z,-6.61
